Bloomville, Wisconsin
Current Conditions -  °F | °C
As of 5:15 AM on Monday 20 Oct 2014 (Local Time) from KRRL Reporting Station
Scattered Clouds Scattered Clouds  
Wind Chill: 39°   Ceiling: Unl
Heat Index: 39°   Visibility: 10mi
Dew Point: 39°   Wind: 0mph
Humidity: 100%   Direction: NA
Pressure: 29.82"   Gusts: NA
Location:  45.3595°N, 89.45°W
Report Text: KRRL 201015Z AUTO 00000KT 10SM SCT036 04/04 A2982 RMK AO2 T00410041
Loading
Personal Weather Stations






























Interactive Weather Map
Tropical Storm Tracking
New forecast layout! Learn more

10-Day Weather Forecast

Advertisements
Track Severe Weather on mobile